sensor_id;sensor_type;location;lat;lon;timestamp;pressure;altitude;pressure_sealevel;temperature;humidity
80627;BME280;69982;51.758;5.784;2023-05-10T00:00:25;100810.50;;;14.57;78.61
80627;BME280;69982;51.758;5.784;2023-05-10T00:03:08;100803.83;;;14.58;78.52
80627;BME280;69982;51.758;5.784;2023-05-10T00:05:38;100803.98;;;14.62;78.57
80627;BME280;69982;51.758;5.784;2023-05-10T00:08:07;100801.84;;;14.66;78.47
80627;BME280;69982;51.758;5.784;2023-05-10T00:10:36;100800.80;;;14.69;78.48
80627;BME280;69982;51.758;5.784;2023-05-10T00:13:05;100799.94;;;14.75;78.29
80627;BME280;69982;51.758;5.784;2023-05-10T00:15:34;100798.89;;;14.80;78.47
80627;BME280;69982;51.758;5.784;2023-05-10T00:18:03;100802.02;;;14.82;78.45
80627;BME280;69982;51.758;5.784;2023-05-10T00:20:31;100799.54;;;14.82;78.31
80627;BME280;69982;51.758;5.784;2023-05-10T00:22:59;100793.23;;;14.78;78.28
80627;BME280;69982;51.758;5.784;2023-05-10T00:25:28;100791.31;;;14.75;78.16
80627;BME280;69982;51.758;5.784;2023-05-10T00:27:56;100795.59;;;14.74;78.07
80627;BME280;69982;51.758;5.784;2023-05-10T00:30:24;100795.73;;;14.76;77.91
80627;BME280;69982;51.758;5.784;2023-05-10T00:32:52;100799.42;;;14.78;77.96
80627;BME280;69982;51.758;5.784;2023-05-10T00:35:21;100798.73;;;14.81;77.89
80627;BME280;69982;51.758;5.784;2023-05-10T00:37:50;100799.27;;;14.84;77.82
80627;BME280;69982;51.758;5.784;2023-05-10T00:40:18;100800.08;;;14.85;77.98
80627;BME280;69982;51.758;5.784;2023-05-10T00:42:46;100795.67;;;14.82;78.05
80627;BME280;69982;51.758;5.784;2023-05-10T00:45:14;100795.73;;;14.79;77.95
80627;BME280;69982;51.758;5.784;2023-05-10T00:47:43;100798.14;;;14.76;78.19
80627;BME280;69982;51.758;5.784;2023-05-10T00:50:11;100797.04;;;14.72;78.09
80627;BME280;69982;51.758;5.784;2023-05-10T00:52:39;100798.96;;;14.71;78.18
80627;BME280;69982;51.758;5.784;2023-05-10T00:55:10;100794.52;;;14.68;78.08
80627;BME280;69982;51.758;5.784;2023-05-10T00:57:39;100790.98;;;14.63;78.26
80627;BME280;69982;51.758;5.784;2023-05-10T01:00:09;100792.38;;;14.61;78.31
80627;BME280;69982;51.758;5.784;2023-05-10T01:02:39;100792.27;;;14.62;78.34
80627;BME280;69982;51.758;5.784;2023-05-10T01:05:10;100788.55;;;14.64;78.42
80627;BME280;69982;51.758;5.784;2023-05-10T01:07:39;100790.02;;;14.65;78.28
80627;BME280;69982;51.758;5.784;2023-05-10T01:10:08;100791.48;;;14.61;78.41
80627;BME280;69982;51.758;5.784;2023-05-10T01:12:39;100785.80;;;14.55;78.42
80627;BME280;69982;51.758;5.784;2023-05-10T01:15:10;100789.75;;;14.56;78.42
80627;BME280;69982;51.758;5.784;2023-05-10T01:17:40;100792.04;;;14.56;78.41
80627;BME280;69982;51.758;5.784;2023-05-10T01:20:11;100788.21;;;14.61;78.38
80627;BME280;69982;51.758;5.784;2023-05-10T01:23:02;100792.39;;;14.69;78.45
80627;BME280;69982;51.758;5.784;2023-05-10T01:25:57;100797.91;;;14.70;78.36
80627;BME280;69982;51.758;5.784;2023-05-10T01:28:47;100800.91;;;14.64;78.22
80627;BME280;69982;51.758;5.784;2023-05-10T01:34:12;100805.17;;;14.51;78.32
80627;BME280;69982;51.758;5.784;2023-05-10T01:36:51;100801.34;;;14.46;78.35
80627;BME280;69982;51.758;5.784;2023-05-10T01:39:36;100800.98;;;14.45;78.41
80627;BME280;69982;51.758;5.784;2023-05-10T01:47:38;100799.70;;;14.32;78.59
80627;BME280;69982;51.758;5.784;2023-05-10T01:50:18;100798.03;;;14.26;78.71
80627;BME280;69982;51.758;5.784;2023-05-10T01:52:51;100796.60;;;14.23;78.82
80627;BME280;69982;51.758;5.784;2023-05-10T01:55:25;100798.17;;;14.20;78.92
80627;BME280;69982;51.758;5.784;2023-05-10T01:58:17;100802.39;;;14.19;78.88
80627;BME280;69982;51.758;5.784;2023-05-10T02:00:47;100798.70;;;14.16;78.87
80627;BME280;69982;51.758;5.784;2023-05-10T02:03:20;100798.20;;;14.10;78.73
80627;BME280;69982;51.758;5.784;2023-05-10T02:05:50;100799.27;;;14.06;78.77
80627;BME280;69982;51.758;5.784;2023-05-10T02:08:21;100799.58;;;14.03;78.88
80627;BME280;69982;51.758;5.784;2023-05-10T02:10:53;100799.63;;;14.00;78.97
80627;BME280;69982;51.758;5.784;2023-05-10T02:13:24;100801.43;;;13.97;78.95
80627;BME280;69982;51.758;5.784;2023-05-10T02:15:54;100806.30;;;13.93;79.07
80627;BME280;69982;51.758;5.784;2023-05-10T02:18:25;100808.91;;;13.88;79.10
80627;BME280;69982;51.758;5.784;2023-05-10T02:20:56;100813.95;;;13.86;79.02
80627;BME280;69982;51.758;5.784;2023-05-10T02:23:26;100817.19;;;13.80;79.08
80627;BME280;69982;51.758;5.784;2023-05-10T02:25:56;100820.27;;;13.79;79.32
80627;BME280;69982;51.758;5.784;2023-05-10T02:28:26;100819.18;;;13.73;79.36
80627;BME280;69982;51.758;5.784;2023-05-10T02:30:57;100827.36;;;13.70;79.42
80627;BME280;69982;51.758;5.784;2023-05-10T02:33:26;100824.98;;;13.69;79.58
80627;BME280;69982;51.758;5.784;2023-05-10T02:35:56;100822.64;;;13.69;79.42
80627;BME280;69982;51.758;5.784;2023-05-10T02:38:25;100826.30;;;13.67;79.44
80627;BME280;69982;51.758;5.784;2023-05-10T02:40:55;100825.59;;;13.70;79.42
80627;BME280;69982;51.758;5.784;2023-05-10T02:43:25;100824.66;;;13.67;79.60
80627;BME280;69982;51.758;5.784;2023-05-10T02:45:54;100820.27;;;13.63;79.56
80627;BME280;69982;51.758;5.784;2023-05-10T02:48:22;100824.97;;;13.65;79.63
80627;BME280;69982;51.758;5.784;2023-05-10T02:50:52;100826.49;;;13.66;79.58
80627;BME280;69982;51.758;5.784;2023-05-10T02:53:31;100827.06;;;13.67;79.60
80627;BME280;69982;51.758;5.784;2023-05-10T02:56:05;100826.21;;;13.69;79.74
80627;BME280;69982;51.758;5.784;2023-05-10T02:58:37;100827.65;;;13.72;79.63
80627;BME280;69982;51.758;5.784;2023-05-10T03:01:05;100826.06;;;13.73;79.65
80627;BME280;69982;51.758;5.784;2023-05-10T03:03:36;100827.02;;;13.72;79.58
80627;BME280;69982;51.758;5.784;2023-05-10T03:06:04;100825.77;;;13.68;79.69
80627;BME280;69982;51.758;5.784;2023-05-10T03:08:33;100824.09;;;13.67;79.73
80627;BME280;69982;51.758;5.784;2023-05-10T03:11:25;100827.36;;;13.70;79.71
80627;BME280;69982;51.758;5.784;2023-05-10T03:17:10;100826.69;;;13.76;79.70
80627;BME280;69982;51.758;5.784;2023-05-10T03:19:53;100823.29;;;13.75;79.72
80627;BME280;69982;51.758;5.784;2023-05-10T03:22:41;100831.36;;;13.79;79.64
80627;BME280;69982;51.758;5.784;2023-05-10T03:25:12;100835.13;;;13.81;79.68
80627;BME280;69982;51.758;5.784;2023-05-10T03:27:43;100833.90;;;13.83;79.56
80627;BME280;69982;51.758;5.784;2023-05-10T03:30:12;100837.62;;;13.87;79.49
80627;BME280;69982;51.758;5.784;2023-05-10T03:32:41;100835.02;;;13.91;79.49
80627;BME280;69982;51.758;5.784;2023-05-10T03:35:11;100835.36;;;13.94;79.47
80627;BME280;69982;51.758;5.784;2023-05-10T03:37:41;100832.69;;;13.92;79.23
80627;BME280;69982;51.758;5.784;2023-05-10T03:40:10;100838.26;;;13.97;79.45
80627;BME280;69982;51.758;5.784;2023-05-10T03:42:39;100837.64;;;13.98;79.29
80627;BME280;69982;51.758;5.784;2023-05-10T03:45:08;100842.23;;;14.02;79.29
80627;BME280;69982;51.758;5.784;2023-05-10T03:47:37;100845.45;;;14.06;79.30
80627;BME280;69982;51.758;5.784;2023-05-10T03:50:07;100846.70;;;14.08;79.22
80627;BME280;69982;51.758;5.784;2023-05-10T03:52:35;100848.23;;;14.06;79.18
80627;BME280;69982;51.758;5.784;2023-05-10T03:55:05;100849.26;;;14.08;79.21
80627;BME280;69982;51.758;5.784;2023-05-10T03:57:35;100854.56;;;14.09;79.13
80627;BME280;69982;51.758;5.784;2023-05-10T04:00:04;100853.32;;;14.13;79.16
80627;BME280;69982;51.758;5.784;2023-05-10T04:02:34;100857.65;;;14.19;79.14
80627;BME280;69982;51.758;5.784;2023-05-10T04:05:02;100859.29;;;14.22;79.16
80627;BME280;69982;51.758;5.784;2023-05-10T04:07:31;100861.32;;;14.27;79.05
80627;BME280;69982;51.758;5.784;2023-05-10T04:09:59;100862.77;;;14.25;79.07
80627;BME280;69982;51.758;5.784;2023-05-10T04:12:27;100863.55;;;14.20;79.00
80627;BME280;69982;51.758;5.784;2023-05-10T04:14:55;100863.48;;;14.15;79.06
80627;BME280;69982;51.758;5.784;2023-05-10T04:17:23;100865.31;;;14.09;79.05
80627;BME280;69982;51.758;5.784;2023-05-10T04:19:53;100862.52;;;14.07;79.07
80627;BME280;69982;51.758;5.784;2023-05-10T04:22:23;100864.77;;;14.06;79.28
80627;BME280;69982;51.758;5.784;2023-05-10T04:24:51;100865.31;;;14.06;79.41
80627;BME280;69982;51.758;5.784;2023-05-10T04:27:19;100863.14;;;14.09;79.43
80627;BME280;69982;51.758;5.784;2023-05-10T04:29:48;100867.65;;;14.14;79.51
80627;BME280;69982;51.758;5.784;2023-05-10T04:32:17;100870.15;;;14.12;79.36
80627;BME280;69982;51.758;5.784;2023-05-10T04:34:46;100870.45;;;14.13;79.37
80627;BME280;69982;51.758;5.784;2023-05-10T04:37:15;100867.55;;;14.10;79.49
80627;BME280;69982;51.758;5.784;2023-05-10T04:39:43;100863.58;;;14.05;79.50
80627;BME280;69982;51.758;5.784;2023-05-10T04:42:12;100869.22;;;14.06;79.70
80627;BME280;69982;51.758;5.784;2023-05-10T04:44:42;100867.51;;;14.03;79.49
80627;BME280;69982;51.758;5.784;2023-05-10T04:47:11;100866.54;;;14.07;79.47
80627;BME280;69982;51.758;5.784;2023-05-10T04:49:40;100866.71;;;14.07;79.47
80627;BME280;69982;51.758;5.784;2023-05-10T04:52:10;100868.08;;;14.09;79.54
80627;BME280;69982;51.758;5.784;2023-05-10T04:54:39;100869.63;;;14.11;79.31
80627;BME280;69982;51.758;5.784;2023-05-10T04:57:09;100875.90;;;14.09;79.44
80627;BME280;69982;51.758;5.784;2023-05-10T04:59:38;100872.53;;;14.05;79.57
80627;BME280;69982;51.758;5.784;2023-05-10T05:02:07;100879.52;;;14.06;79.60
80627;BME280;69982;51.758;5.784;2023-05-10T05:04:37;100880.49;;;14.04;79.47
80627;BME280;69982;51.758;5.784;2023-05-10T05:07:05;100881.76;;;14.04;79.43
80627;BME280;69982;51.758;5.784;2023-05-10T05:09:34;100886.35;;;14.05;79.50
80627;BME280;69982;51.758;5.784;2023-05-10T05:12:03;100884.11;;;14.04;79.50
80627;BME280;69982;51.758;5.784;2023-05-10T05:14:31;100887.20;;;14.06;79.60
80627;BME280;69982;51.758;5.784;2023-05-10T05:17:00;100890.91;;;14.04;79.51
80627;BME280;69982;51.758;5.784;2023-05-10T05:19:30;100888.97;;;14.00;79.50
80627;BME280;69982;51.758;5.784;2023-05-10T05:21:59;100884.78;;;13.96;79.48
80627;BME280;69982;51.758;5.784;2023-05-10T05:24:35;100892.03;;;13.98;79.42
80627;BME280;69982;51.758;5.784;2023-05-10T05:27:05;100891.26;;;13.97;79.56
80627;BME280;69982;51.758;5.784;2023-05-10T05:29:34;100892.89;;;13.97;79.63
80627;BME280;69982;51.758;5.784;2023-05-10T05:32:02;100895.06;;;13.95;79.71
80627;BME280;69982;51.758;5.784;2023-05-10T05:34:31;100898.09;;;13.96;79.80
80627;BME280;69982;51.758;5.784;2023-05-10T05:37:01;100898.34;;;13.95;79.83
80627;BME280;69982;51.758;5.784;2023-05-10T05:39:29;100900.18;;;13.95;79.81
80627;BME280;69982;51.758;5.784;2023-05-10T05:41:57;100898.48;;;13.94;79.66
80627;BME280;69982;51.758;5.784;2023-05-10T05:44:27;100901.11;;;13.93;79.74
80627;BME280;69982;51.758;5.784;2023-05-10T05:46:56;100902.15;;;13.92;79.73
80627;BME280;69982;51.758;5.784;2023-05-10T05:49:25;100899.55;;;13.87;79.75
80627;BME280;69982;51.758;5.784;2023-05-10T05:51:53;100903.46;;;13.87;79.91
80627;BME280;69982;51.758;5.784;2023-05-10T05:54:21;100899.06;;;13.80;79.72
80627;BME280;69982;51.758;5.784;2023-05-10T05:56:49;100907.02;;;13.81;79.85
80627;BME280;69982;51.758;5.784;2023-05-10T05:59:18;100902.19;;;13.79;79.80
80627;BME280;69982;51.758;5.784;2023-05-10T06:01:47;100906.32;;;13.79;79.75
80627;BME280;69982;51.758;5.784;2023-05-10T06:04:15;100911.69;;;13.77;79.76
80627;BME280;69982;51.758;5.784;2023-05-10T06:06:44;100915.86;;;13.75;79.70
80627;BME280;69982;51.758;5.784;2023-05-10T06:09:12;100920.25;;;13.74;79.85
80627;BME280;69982;51.758;5.784;2023-05-10T06:11:41;100918.05;;;13.74;79.87
80627;BME280;69982;51.758;5.784;2023-05-10T06:14:09;100922.41;;;13.75;79.86
80627;BME280;69982;51.758;5.784;2023-05-10T06:16:37;100920.70;;;13.76;79.77
80627;BME280;69982;51.758;5.784;2023-05-10T06:19:07;100927.14;;;13.77;79.57
80627;BME280;69982;51.758;5.784;2023-05-10T06:21:36;100917.25;;;13.73;79.57
80627;BME280;69982;51.758;5.784;2023-05-10T06:24:05;100931.06;;;13.78;79.56
80627;BME280;69982;51.758;5.784;2023-05-10T06:26:34;100934.11;;;13.80;79.55
80627;BME280;69982;51.758;5.784;2023-05-10T06:29:03;100935.46;;;13.77;79.52
80627;BME280;69982;51.758;5.784;2023-05-10T06:31:31;100934.66;;;13.82;79.68
80627;BME280;69982;51.758;5.784;2023-05-10T06:34:00;100935.38;;;13.87;79.49
80627;BME280;69982;51.758;5.784;2023-05-10T06:36:28;100943.16;;;13.90;79.41
80627;BME280;69982;51.758;5.784;2023-05-10T06:38:56;100945.59;;;13.93;79.42
80627;BME280;69982;51.758;5.784;2023-05-10T06:41:24;100944.66;;;13.90;79.45
80627;BME280;69982;51.758;5.784;2023-05-10T06:43:53;100952.43;;;13.90;79.31
80627;BME280;69982;51.758;5.784;2023-05-10T06:46:21;100954.63;;;13.86;79.35
80627;BME280;69982;51.758;5.784;2023-05-10T06:48:50;100950.72;;;13.81;79.47
80627;BME280;69982;51.758;5.784;2023-05-10T06:51:18;100952.83;;;13.81;79.35
80627;BME280;69982;51.758;5.784;2023-05-10T06:53:49;100953.98;;;13.82;79.38
80627;BME280;69982;51.758;5.784;2023-05-10T06:56:17;100958.17;;;13.82;79.42
80627;BME280;69982;51.758;5.784;2023-05-10T06:58:46;100953.25;;;13.84;79.41
80627;BME280;69982;51.758;5.784;2023-05-10T07:01:14;100956.05;;;13.86;79.40
80627;BME280;69982;51.758;5.784;2023-05-10T07:03:43;100959.09;;;13.89;79.46
80627;BME280;69982;51.758;5.784;2023-05-10T07:06:12;100962.66;;;13.89;79.45
80627;BME280;69982;51.758;5.784;2023-05-10T07:08:49;100973.05;;;13.93;79.46
80627;BME280;69982;51.758;5.784;2023-05-10T07:11:17;100973.44;;;13.96;79.46
80627;BME280;69982;51.758;5.784;2023-05-10T07:13:46;100969.33;;;13.96;79.52
80627;BME280;69982;51.758;5.784;2023-05-10T07:16:16;100975.27;;;14.05;79.32
80627;BME280;69982;51.758;5.784;2023-05-10T07:18:45;100971.45;;;14.10;79.18
80627;BME280;69982;51.758;5.784;2023-05-10T07:21:14;100974.94;;;14.13;79.27
80627;BME280;69982;51.758;5.784;2023-05-10T07:23:43;100973.81;;;14.13;79.09
80627;BME280;69982;51.758;5.784;2023-05-10T07:26:12;100980.77;;;14.13;78.98
80627;BME280;69982;51.758;5.784;2023-05-10T07:28:41;100981.60;;;14.12;78.99
80627;BME280;69982;51.758;5.784;2023-05-10T07:31:09;100981.48;;;14.18;79.12
80627;BME280;69982;51.758;5.784;2023-05-10T07:33:38;100977.55;;;14.21;79.16
80627;BME280;69982;51.758;5.784;2023-05-10T07:36:07;100977.91;;;14.23;79.24
80627;BME280;69982;51.758;5.784;2023-05-10T07:38:36;100983.95;;;14.23;79.25
80627;BME280;69982;51.758;5.784;2023-05-10T07:41:05;100989.67;;;14.21;79.34
80627;BME280;69982;51.758;5.784;2023-05-10T07:43:35;100993.11;;;14.19;79.56
80627;BME280;69982;51.758;5.784;2023-05-10T07:46:04;100990.77;;;14.18;79.23
80627;BME280;69982;51.758;5.784;2023-05-10T07:48:34;100996.58;;;14.21;79.22
80627;BME280;69982;51.758;5.784;2023-05-10T07:51:02;101000.27;;;14.23;79.12
80627;BME280;69982;51.758;5.784;2023-05-10T07:53:31;100999.30;;;14.25;79.31
80627;BME280;69982;51.758;5.784;2023-05-10T07:56:26;100993.98;;;14.28;79.37
80627;BME280;69982;51.758;5.784;2023-05-10T07:58:58;100999.52;;;14.32;79.44
80627;BME280;69982;51.758;5.784;2023-05-10T08:01:30;100999.64;;;14.32;79.36
80627;BME280;69982;51.758;5.784;2023-05-10T08:04:01;100998.52;;;14.38;79.24
80627;BME280;69982;51.758;5.784;2023-05-10T08:06:31;100999.45;;;14.44;79.39
80627;BME280;69982;51.758;5.784;2023-05-10T08:08:59;101005.35;;;14.51;78.92
80627;BME280;69982;51.758;5.784;2023-05-10T08:11:28;101006.75;;;14.57;78.95
80627;BME280;69982;51.758;5.784;2023-05-10T08:13:56;101005.77;;;14.62;78.81
80627;BME280;69982;51.758;5.784;2023-05-10T08:16:24;101007.50;;;14.66;78.73
80627;BME280;69982;51.758;5.784;2023-05-10T08:18:54;101008.00;;;14.69;78.83
80627;BME280;69982;51.758;5.784;2023-05-10T08:21:23;101009.55;;;14.71;78.64
80627;BME280;69982;51.758;5.784;2023-05-10T08:23:51;101015.98;;;14.77;78.36
80627;BME280;69982;51.758;5.784;2023-05-10T08:26:19;101017.69;;;14.79;78.02
80627;BME280;69982;51.758;5.784;2023-05-10T08:28:50;101014.19;;;14.78;78.03
80627;BME280;69982;51.758;5.784;2023-05-10T08:31:19;101021.80;;;14.81;78.00
80627;BME280;69982;51.758;5.784;2023-05-10T08:33:48;101026.64;;;14.80;77.92
80627;BME280;69982;51.758;5.784;2023-05-10T08:36:18;101031.71;;;14.77;77.50
80627;BME280;69982;51.758;5.784;2023-05-10T08:38:50;101038.34;;;14.78;77.15
80627;BME280;69982;51.758;5.784;2023-05-10T08:41:20;101042.58;;;14.78;77.11
80627;BME280;69982;51.758;5.784;2023-05-10T08:43:50;101045.20;;;14.79;77.09
80627;BME280;69982;51.758;5.784;2023-05-10T08:46:19;101044.16;;;14.80;77.28
80627;BME280;69982;51.758;5.784;2023-05-10T08:48:50;101045.84;;;14.80;77.28
80627;BME280;69982;51.758;5.784;2023-05-10T08:51:24;101039.86;;;14.79;77.28
80627;BME280;69982;51.758;5.784;2023-05-10T08:53:56;101048.73;;;14.81;77.15
80627;BME280;69982;51.758;5.784;2023-05-10T08:56:25;101047.10;;;14.83;77.11
80627;BME280;69982;51.758;5.784;2023-05-10T08:58:54;101049.40;;;14.85;77.07
80627;BME280;69982;51.758;5.784;2023-05-10T09:01:23;101046.73;;;14.89;77.20
80627;BME280;69982;51.758;5.784;2023-05-10T09:03:53;101048.70;;;14.95;77.46
80627;BME280;69982;51.758;5.784;2023-05-10T09:06:22;101050.42;;;14.98;77.23
80627;BME280;69982;51.758;5.784;2023-05-10T09:08:52;101063.02;;;15.03;77.23
80627;BME280;69982;51.758;5.784;2023-05-10T09:11:21;101066.79;;;15.04;77.16
80627;BME280;69982;51.758;5.784;2023-05-10T09:13:50;101070.35;;;15.03;77.12
80627;BME280;69982;51.758;5.784;2023-05-10T09:16:20;101072.77;;;15.01;77.00
80627;BME280;69982;51.758;5.784;2023-05-10T09:18:49;101072.86;;;14.99;76.94
80627;BME280;69982;51.758;5.784;2023-05-10T09:21:19;101076.05;;;14.98;76.88
80627;BME280;69982;51.758;5.784;2023-05-10T09:23:48;101078.82;;;14.95;76.70
80627;BME280;69982;51.758;5.784;2023-05-10T09:26:22;101078.40;;;14.93;76.74
80627;BME280;69982;51.758;5.784;2023-05-10T09:28:56;101082.42;;;14.91;76.60
80627;BME280;69982;51.758;5.784;2023-05-10T09:34:20;101085.45;;;14.85;76.27
80627;BME280;69982;51.758;5.784;2023-05-10T09:36:55;101085.10;;;14.84;76.37
80627;BME280;69982;51.758;5.784;2023-05-10T09:39:34;101087.40;;;14.86;76.43
80627;BME280;69982;51.758;5.784;2023-05-10T09:42:08;101091.22;;;14.89;76.73
80627;BME280;69982;51.758;5.784;2023-05-10T09:44:38;101099.56;;;14.95;76.48
80627;BME280;69982;51.758;5.784;2023-05-10T09:47:07;101102.66;;;14.97;76.32
80627;BME280;69982;51.758;5.784;2023-05-10T09:49:36;101102.83;;;14.97;75.99
80627;BME280;69982;51.758;5.784;2023-05-10T09:52:07;101101.04;;;14.95;75.92
80627;BME280;69982;51.758;5.784;2023-05-10T09:54:37;101108.31;;;14.95;75.83
80627;BME280;69982;51.758;5.784;2023-05-10T09:57:20;101110.31;;;14.94;75.90
80627;BME280;69982;51.758;5.784;2023-05-10T09:59:49;101112.25;;;14.95;75.85
80627;BME280;69982;51.758;5.784;2023-05-10T10:02:19;101115.01;;;14.96;75.67
80627;BME280;69982;51.758;5.784;2023-05-10T10:04:49;101109.91;;;14.96;75.59
80627;BME280;69982;51.758;5.784;2023-05-10T10:07:22;101115.21;;;14.99;75.86
80627;BME280;69982;51.758;5.784;2023-05-10T10:09:57;101114.05;;;15.02;76.05
80627;BME280;69982;51.758;5.784;2023-05-10T10:12:26;101114.88;;;15.07;76.34
80627;BME280;69982;51.758;5.784;2023-05-10T10:15:02;101116.98;;;15.09;76.18
80627;BME280;69982;51.758;5.784;2023-05-10T10:17:32;101116.27;;;15.10;76.39
80627;BME280;69982;51.758;5.784;2023-05-10T10:20:04;101117.02;;;15.12;76.15
80627;BME280;69982;51.758;5.784;2023-05-10T10:22:33;101114.66;;;15.15;75.95
80627;BME280;69982;51.758;5.784;2023-05-10T10:25:03;101124.94;;;15.21;76.13
80627;BME280;69982;51.758;5.784;2023-05-10T10:28:09;101126.85;;;15.29;75.79
80627;BME280;69982;51.758;5.784;2023-05-10T10:30:46;101126.11;;;15.34;75.63
80627;BME280;69982;51.758;5.784;2023-05-10T10:35:58;101119.18;;;15.38;75.84
80627;BME280;69982;51.758;5.784;2023-05-10T10:41:35;101125.96;;;15.45;75.79
80627;BME280;69982;51.758;5.784;2023-05-10T10:50:08;101122.31;;;15.55;75.29
80627;BME280;69982;51.758;5.784;2023-05-10T10:52:40;101121.45;;;15.61;75.08
80627;BME280;69982;51.758;5.784;2023-05-10T10:55:17;101122.81;;;15.66;74.86
80627;BME280;69982;51.758;5.784;2023-05-10T10:57:49;101118.50;;;15.68;74.58
80627;BME280;69982;51.758;5.784;2023-05-10T11:02:58;101122.73;;;15.77;74.59
80627;BME280;69982;51.758;5.784;2023-05-10T11:05:39;101123.20;;;15.82;74.26
80627;BME280;69982;51.758;5.784;2023-05-10T11:08:17;101120.17;;;15.81;73.29
80627;BME280;69982;51.758;5.784;2023-05-10T11:13:47;101121.15;;;15.86;72.97
80627;BME280;69982;51.758;5.784;2023-05-10T11:16:25;101122.11;;;15.93;72.82
80627;BME280;69982;51.758;5.784;2023-05-10T11:19:03;101124.60;;;15.94;72.55
80627;BME280;69982;51.758;5.784;2023-05-10T11:21:34;101127.55;;;16.00;72.93
80627;BME280;69982;51.758;5.784;2023-05-10T11:26:42;101132.41;;;16.07;72.56
80627;BME280;69982;51.758;5.784;2023-05-10T11:29:13;101133.70;;;16.08;72.44
80627;BME280;69982;51.758;5.784;2023-05-10T11:31:45;101131.30;;;16.05;71.91
80627;BME280;69982;51.758;5.784;2023-05-10T11:34:31;101134.77;;;16.07;72.31
80627;BME280;69982;51.758;5.784;2023-05-10T11:37:03;101142.23;;;16.11;72.10
80627;BME280;69982;51.758;5.784;2023-05-10T11:39:32;101142.05;;;16.14;71.78
80627;BME280;69982;51.758;5.784;2023-05-10T11:42:02;101139.62;;;16.14;71.32
80627;BME280;69982;51.758;5.784;2023-05-10T11:44:34;101146.09;;;16.21;71.56
80627;BME280;69982;51.758;5.784;2023-05-10T11:47:03;101139.65;;;16.26;71.33
80627;BME280;69982;51.758;5.784;2023-05-10T11:49:34;101143.70;;;16.31;71.53
80627;BME280;69982;51.758;5.784;2023-05-10T11:52:06;101147.54;;;16.36;71.30
80627;BME280;69982;51.758;5.784;2023-05-10T11:54:35;101139.69;;;16.40;71.19
80627;BME280;69982;51.758;5.784;2023-05-10T11:57:04;101142.29;;;16.42;71.11
80627;BME280;69982;51.758;5.784;2023-05-10T11:59:33;101142.86;;;16.43;70.87
80627;BME280;69982;51.758;5.784;2023-05-10T12:02:02;101145.41;;;16.46;70.32
80627;BME280;69982;51.758;5.784;2023-05-10T12:04:32;101144.13;;;16.49;70.72
80627;BME280;69982;51.758;5.784;2023-05-10T12:07:02;101143.19;;;16.52;70.56
80627;BME280;69982;51.758;5.784;2023-05-10T12:09:31;101143.90;;;16.48;69.92
80627;BME280;69982;51.758;5.784;2023-05-10T12:12:07;101148.40;;;16.51;70.34
80627;BME280;69982;51.758;5.784;2023-05-10T12:14:36;101150.70;;;16.49;70.41
80627;BME280;69982;51.758;5.784;2023-05-10T12:17:05;101147.54;;;16.48;70.72
80627;BME280;69982;51.758;5.784;2023-05-10T12:19:38;101149.64;;;16.53;70.85
80627;BME280;69982;51.758;5.784;2023-05-10T12:22:07;101149.13;;;16.61;70.89
80627;BME280;69982;51.758;5.784;2023-05-10T12:24:36;101151.34;;;16.70;70.46
80627;BME280;69982;51.758;5.784;2023-05-10T12:27:10;101147.37;;;16.75;69.94
80627;BME280;69982;51.758;5.784;2023-05-10T12:29:42;101155.69;;;16.81;69.81
80627;BME280;69982;51.758;5.784;2023-05-10T12:32:13;101154.59;;;16.86;69.70
80627;BME280;69982;51.758;5.784;2023-05-10T12:34:41;101154.02;;;16.88;69.70
80627;BME280;69982;51.758;5.784;2023-05-10T12:37:10;101153.83;;;16.86;69.41
80627;BME280;69982;51.758;5.784;2023-05-10T12:39:44;101153.95;;;16.87;69.42
80627;BME280;69982;51.758;5.784;2023-05-10T12:42:16;101153.86;;;16.86;69.57
80627;BME280;69982;51.758;5.784;2023-05-10T12:44:44;101158.91;;;16.89;69.70
80627;BME280;69982;51.758;5.784;2023-05-10T12:47:13;101163.95;;;16.91;69.51
80627;BME280;69982;51.758;5.784;2023-05-10T12:49:42;101165.23;;;16.88;69.41
80627;BME280;69982;51.758;5.784;2023-05-10T12:52:10;101176.31;;;16.90;69.48
80627;BME280;69982;51.758;5.784;2023-05-10T12:54:40;101176.02;;;16.86;69.25
80627;BME280;69982;51.758;5.784;2023-05-10T12:57:09;101178.27;;;16.82;69.18
80627;BME280;69982;51.758;5.784;2023-05-10T12:59:39;101181.33;;;16.79;69.33
80627;BME280;69982;51.758;5.784;2023-05-10T13:02:08;101185.38;;;16.75;69.69
80627;BME280;69982;51.758;5.784;2023-05-10T13:04:39;101186.64;;;16.74;70.22
80627;BME280;69982;51.758;5.784;2023-05-10T13:07:07;101186.59;;;16.74;70.29
80627;BME280;69982;51.758;5.784;2023-05-10T13:09:35;101192.48;;;16.75;70.18
80627;BME280;69982;51.758;5.784;2023-05-10T13:12:04;101185.14;;;16.71;69.54
80627;BME280;69982;51.758;5.784;2023-05-10T13:14:33;101185.30;;;16.70;69.36
80627;BME280;69982;51.758;5.784;2023-05-10T13:17:02;101191.29;;;16.70;69.91
80627;BME280;69982;51.758;5.784;2023-05-10T13:19:31;101188.73;;;16.68;70.32
80627;BME280;69982;51.758;5.784;2023-05-10T13:21:59;101195.60;;;16.71;70.43
80627;BME280;69982;51.758;5.784;2023-05-10T13:24:27;101194.66;;;16.70;70.00
80627;BME280;69982;51.758;5.784;2023-05-10T13:26:56;101195.63;;;16.65;69.83
80627;BME280;69982;51.758;5.784;2023-05-10T13:29:24;101192.61;;;16.62;70.27
80627;BME280;69982;51.758;5.784;2023-05-10T13:31:53;101196.77;;;16.59;70.66
80627;BME280;69982;51.758;5.784;2023-05-10T13:34:21;101194.86;;;16.58;70.48
80627;BME280;69982;51.758;5.784;2023-05-10T13:36:50;101193.11;;;16.56;70.41
80627;BME280;69982;51.758;5.784;2023-05-10T13:39:19;101201.92;;;16.56;70.44
80627;BME280;69982;51.758;5.784;2023-05-10T13:41:49;101205.33;;;16.55;70.52